sensor_id;sensor_type;location;lat;lon;timestamp;temperature;humidity
30063;DHT22;16889;67.864;24.990;2023-05-07T00:00:19;0.10;96.60
30063;DHT22;16889;67.864;24.990;2023-05-07T00:05:05;0.10;97.20
30063;DHT22;16889;67.864;24.990;2023-05-07T00:09:52;0.10;97.60
30063;DHT22;16889;67.864;24.990;2023-05-07T00:14:38;0.10;98.20
30063;DHT22;16889;67.864;24.990;2023-05-07T00:19:24;0.10;97.80
30063;DHT22;16889;67.864;24.990;2023-05-07T00:24:10;0.10;98.10
30063;DHT22;16889;67.864;24.990;2023-05-07T00:28:56;0.00;98.50
30063;DHT22;16889;67.864;24.990;2023-05-07T00:33:42;0.00;98.70
30063;DHT22;16889;67.864;24.990;2023-05-07T00:38:28;0.00;98.30
30063;DHT22;16889;67.864;24.990;2023-05-07T00:43:14;0.00;99.00
30063;DHT22;16889;67.864;24.990;2023-05-07T00:48:02;0.00;98.50
30063;DHT22;16889;67.864;24.990;2023-05-07T00:52:49;-0.10;99.10
30063;DHT22;16889;67.864;24.990;2023-05-07T00:57:40;-0.10;99.30
30063;DHT22;16889;67.864;24.990;2023-05-07T01:02:26;-0.10;99.30
30063;DHT22;16889;67.864;24.990;2023-05-07T01:07:13;-0.20;99.20
30063;DHT22;16889;67.864;24.990;2023-05-07T01:11:59;-0.20;99.30
30063;DHT22;16889;67.864;24.990;2023-05-07T01:16:45;-0.20;99.70
30063;DHT22;16889;67.864;24.990;2023-05-07T01:21:33;-0.20;99.90
30063;DHT22;16889;67.864;24.990;2023-05-07T01:26:22;-0.30;99.20
30063;DHT22;16889;67.864;24.990;2023-05-07T01:31:09;-0.20;99.90
30063;DHT22;16889;67.864;24.990;2023-05-07T01:35:56;-0.30;99.90
30063;DHT22;16889;67.864;24.990;2023-05-07T01:40:43;-0.30;99.10
30063;DHT22;16889;67.864;24.990;2023-05-07T01:45:30;-0.30;99.10
30063;DHT22;16889;67.864;24.990;2023-05-07T01:50:18;-0.40;99.30
30063;DHT22;16889;67.864;24.990;2023-05-07T01:55:05;-0.40;99.80
30063;DHT22;16889;67.864;24.990;2023-05-07T01:59:52;-0.40;99.90
30063;DHT22;16889;67.864;24.990;2023-05-07T02:04:38;-0.30;99.90
30063;DHT22;16889;67.864;24.990;2023-05-07T02:09:23;-0.30;99.50
30063;DHT22;16889;67.864;24.990;2023-05-07T02:14:09;-0.20;99.50
30063;DHT22;16889;67.864;24.990;2023-05-07T02:18:56;-0.20;99.30
30063;DHT22;16889;67.864;24.990;2023-05-07T02:23:42;0.00;99.10
30063;DHT22;16889;67.864;24.990;2023-05-07T02:28:28;0.00;98.50
30063;DHT22;16889;67.864;24.990;2023-05-07T02:33:14;0.20;98.80
30063;DHT22;16889;67.864;24.990;2023-05-07T02:38:00;0.30;98.50
30063;DHT22;16889;67.864;24.990;2023-05-07T02:42:46;0.20;97.80
30063;DHT22;16889;67.864;24.990;2023-05-07T02:47:32;0.30;98.10
30063;DHT22;16889;67.864;24.990;2023-05-07T02:52:17;0.40;98.20
30063;DHT22;16889;67.864;24.990;2023-05-07T02:57:03;0.60;98.30
30063;DHT22;16889;67.864;24.990;2023-05-07T03:01:49;0.80;97.60
30063;DHT22;16889;67.864;24.990;2023-05-07T03:06:35;0.90;96.40
30063;DHT22;16889;67.864;24.990;2023-05-07T03:11:21;0.90;96.20
30063;DHT22;16889;67.864;24.990;2023-05-07T03:16:07;1.20;95.70
30063;DHT22;16889;67.864;24.990;2023-05-07T03:20:53;1.60;95.60
30063;DHT22;16889;67.864;24.990;2023-05-07T03:25:39;1.90;94.30
30063;DHT22;16889;67.864;24.990;2023-05-07T03:30:25;2.10;94.60
30063;DHT22;16889;67.864;24.990;2023-05-07T03:35:11;2.40;94.60
30063;DHT22;16889;67.864;24.990;2023-05-07T03:39:57;2.60;94.00
30063;DHT22;16889;67.864;24.990;2023-05-07T03:44:43;3.20;93.40
30063;DHT22;16889;67.864;24.990;2023-05-07T03:49:29;4.60;89.90
30063;DHT22;16889;67.864;24.990;2023-05-07T03:54:15;5.90;80.30
30063;DHT22;16889;67.864;24.990;2023-05-07T03:59:01;5.70;78.00
30063;DHT22;16889;67.864;24.990;2023-05-07T04:03:47;5.20;80.10
30063;DHT22;16889;67.864;24.990;2023-05-07T04:08:33;5.00;79.20
30063;DHT22;16889;67.864;24.990;2023-05-07T04:13:19;5.30;79.50
30063;DHT22;16889;67.864;24.990;2023-05-07T04:18:05;6.30;76.50
30063;DHT22;16889;67.864;24.990;2023-05-07T04:22:51;6.30;75.60
30063;DHT22;16889;67.864;24.990;2023-05-07T04:27:37;6.00;73.10
30063;DHT22;16889;67.864;24.990;2023-05-07T04:32:23;5.30;73.80
30063;DHT22;16889;67.864;24.990;2023-05-07T04:37:10;5.10;77.60
30063;DHT22;16889;67.864;24.990;2023-05-07T04:41:56;5.60;79.60
30063;DHT22;16889;67.864;24.990;2023-05-07T04:46:42;6.70;72.70
30063;DHT22;16889;67.864;24.990;2023-05-07T04:51:28;7.60;63.40
30063;DHT22;16889;67.864;24.990;2023-05-07T04:56:14;8.50;66.20
30063;DHT22;16889;67.864;24.990;2023-05-07T05:01:00;9.20;56.30
30063;DHT22;16889;67.864;24.990;2023-05-07T05:05:50;9.50;57.80
30063;DHT22;16889;67.864;24.990;2023-05-07T05:10:37;9.00;56.90
30063;DHT22;16889;67.864;24.990;2023-05-07T05:15:23;9.00;58.70
30063;DHT22;16889;67.864;24.990;2023-05-07T05:20:09;9.80;57.30
30063;DHT22;16889;67.864;24.990;2023-05-07T05:24:56;10.30;55.20
30063;DHT22;16889;67.864;24.990;2023-05-07T05:29:42;11.10;53.60
30063;DHT22;16889;67.864;24.990;2023-05-07T05:34:28;11.10;51.80
30063;DHT22;16889;67.864;24.990;2023-05-07T05:39:14;10.60;52.70
30063;DHT22;16889;67.864;24.990;2023-05-07T05:44:00;10.40;52.80
30063;DHT22;16889;67.864;24.990;2023-05-07T05:48:45;10.80;52.30
30063;DHT22;16889;67.864;24.990;2023-05-07T05:53:31;10.80;52.20
30063;DHT22;16889;67.864;24.990;2023-05-07T05:58:17;10.30;52.10
30063;DHT22;16889;67.864;24.990;2023-05-07T06:03:03;10.00;51.30
30063;DHT22;16889;67.864;24.990;2023-05-07T06:07:50;9.70;51.50
30063;DHT22;16889;67.864;24.990;2023-05-07T06:12:36;8.90;54.90
30063;DHT22;16889;67.864;24.990;2023-05-07T06:17:22;9.00;53.90
30063;DHT22;16889;67.864;24.990;2023-05-07T06:22:08;8.80;54.70
30063;DHT22;16889;67.864;24.990;2023-05-07T06:26:54;8.80;56.20
30063;DHT22;16889;67.864;24.990;2023-05-07T06:31:40;8.80;52.10
30063;DHT22;16889;67.864;24.990;2023-05-07T06:36:25;8.80;54.50
30063;DHT22;16889;67.864;24.990;2023-05-07T06:41:12;9.30;54.60
30063;DHT22;16889;67.864;24.990;2023-05-07T06:45:58;10.00;53.00
30063;DHT22;16889;67.864;24.990;2023-05-07T06:50:44;10.10;52.70
30063;DHT22;16889;67.864;24.990;2023-05-07T06:55:30;10.00;53.50
30063;DHT22;16889;67.864;24.990;2023-05-07T07:00:16;12.00;50.30
30063;DHT22;16889;67.864;24.990;2023-05-07T07:05:02;13.20;48.40
30063;DHT22;16889;67.864;24.990;2023-05-07T07:09:49;13.80;45.10
30063;DHT22;16889;67.864;24.990;2023-05-07T07:14:35;13.40;44.20
30063;DHT22;16889;67.864;24.990;2023-05-07T07:19:21;12.60;47.40
30063;DHT22;16889;67.864;24.990;2023-05-07T07:24:07;11.30;48.40
30063;DHT22;16889;67.864;24.990;2023-05-07T07:28:53;11.20;49.10
30063;DHT22;16889;67.864;24.990;2023-05-07T07:33:39;11.20;50.10
30063;DHT22;16889;67.864;24.990;2023-05-07T07:38:25;11.00;49.70
30063;DHT22;16889;67.864;24.990;2023-05-07T07:43:11;10.80;50.00
30063;DHT22;16889;67.864;24.990;2023-05-07T07:47:57;10.70;49.90
30063;DHT22;16889;67.864;24.990;2023-05-07T07:52:43;10.20;50.80
30063;DHT22;16889;67.864;24.990;2023-05-07T07:57:29;10.30;49.40
30063;DHT22;16889;67.864;24.990;2023-05-07T08:02:16;10.30;49.80
30063;DHT22;16889;67.864;24.990;2023-05-07T08:07:11;10.70;49.10
30063;DHT22;16889;67.864;24.990;2023-05-07T08:11:57;10.50;48.60
30063;DHT22;16889;67.864;24.990;2023-05-07T08:16:43;10.70;48.50
30063;DHT22;16889;67.864;24.990;2023-05-07T08:21:28;11.10;48.80
30063;DHT22;16889;67.864;24.990;2023-05-07T08:26:16;11.50;45.20
30063;DHT22;16889;67.864;24.990;2023-05-07T08:31:02;11.80;47.80
30063;DHT22;16889;67.864;24.990;2023-05-07T08:35:48;12.00;45.50
30063;DHT22;16889;67.864;24.990;2023-05-07T08:40:38;12.20;47.40
30063;DHT22;16889;67.864;24.990;2023-05-07T08:45:26;12.00;45.10
30063;DHT22;16889;67.864;24.990;2023-05-07T08:50:13;11.80;45.20
30063;DHT22;16889;67.864;24.990;2023-05-07T08:54:59;11.40;44.90
30063;DHT22;16889;67.864;24.990;2023-05-07T08:59:45;11.30;47.50
30063;DHT22;16889;67.864;24.990;2023-05-07T09:04:31;11.10;45.30
30063;DHT22;16889;67.864;24.990;2023-05-07T09:09:17;10.90;48.40
30063;DHT22;16889;67.864;24.990;2023-05-07T09:14:06;11.00;45.40
30063;DHT22;16889;67.864;24.990;2023-05-07T09:18:53;10.60;47.70
30063;DHT22;16889;67.864;24.990;2023-05-07T09:23:39;10.80;47.10
30063;DHT22;16889;67.864;24.990;2023-05-07T09:28:25;11.20;45.50
30063;DHT22;16889;67.864;24.990;2023-05-07T09:33:11;10.70;44.70
30063;DHT22;16889;67.864;24.990;2023-05-07T09:37:59;10.70;45.20
30063;DHT22;16889;67.864;24.990;2023-05-07T09:42:45;11.10;45.00
30063;DHT22;16889;67.864;24.990;2023-05-07T09:47:32;11.30;43.60
30063;DHT22;16889;67.864;24.990;2023-05-07T09:52:20;11.20;43.50
30063;DHT22;16889;67.864;24.990;2023-05-07T09:57:07;12.10;42.30
30063;DHT22;16889;67.864;24.990;2023-05-07T10:01:57;13.30;43.30
30063;DHT22;16889;67.864;24.990;2023-05-07T10:06:44;15.20;38.70
30063;DHT22;16889;67.864;24.990;2023-05-07T10:11:31;15.70;36.50
30063;DHT22;16889;67.864;24.990;2023-05-07T10:16:18;17.20;34.00
30063;DHT22;16889;67.864;24.990;2023-05-07T10:21:12;17.40;33.50
30063;DHT22;16889;67.864;24.990;2023-05-07T10:26:05;17.60;33.40
30063;DHT22;16889;67.864;24.990;2023-05-07T10:36:22;18.80;31.20
30063;DHT22;16889;67.864;24.990;2023-05-07T10:41:10;18.10;31.80
30063;DHT22;16889;67.864;24.990;2023-05-07T10:46:15;17.90;30.50
30063;DHT22;16889;67.864;24.990;2023-05-07T10:51:31;17.10;31.70
30063;DHT22;16889;67.864;24.990;2023-05-07T11:01:04;15.50;36.40
30063;DHT22;16889;67.864;24.990;2023-05-07T11:06:11;15.30;36.50
30063;DHT22;16889;67.864;24.990;2023-05-07T11:10:57;14.50;37.10
30063;DHT22;16889;67.864;24.990;2023-05-07T11:15:46;13.80;39.90
30063;DHT22;16889;67.864;24.990;2023-05-07T11:20:52;13.70;39.70
30063;DHT22;16889;67.864;24.990;2023-05-07T11:25:38;13.30;40.20
30063;DHT22;16889;67.864;24.990;2023-05-07T11:30:24;12.80;41.10
30063;DHT22;16889;67.864;24.990;2023-05-07T11:35:11;12.50;42.00
30063;DHT22;16889;67.864;24.990;2023-05-07T11:40:07;11.90;44.00
30063;DHT22;16889;67.864;24.990;2023-05-07T11:44:53;12.00;42.20
30063;DHT22;16889;67.864;24.990;2023-05-07T11:49:39;11.90;44.20
30063;DHT22;16889;67.864;24.990;2023-05-07T11:54:26;12.20;44.00
30063;DHT22;16889;67.864;24.990;2023-05-07T11:59:12;11.90;45.10
30063;DHT22;16889;67.864;24.990;2023-05-07T12:04:03;11.80;44.40
30063;DHT22;16889;67.864;24.990;2023-05-07T12:08:50;12.10;45.50
30063;DHT22;16889;67.864;24.990;2023-05-07T12:13:36;12.10;43.30
30063;DHT22;16889;67.864;24.990;2023-05-07T12:18:23;12.30;45.20
30063;DHT22;16889;67.864;24.990;2023-05-07T12:23:09;12.40;44.80
30063;DHT22;16889;67.864;24.990;2023-05-07T12:27:56;12.40;44.10
30063;DHT22;16889;67.864;24.990;2023-05-07T12:32:44;12.20;44.70
30063;DHT22;16889;67.864;24.990;2023-05-07T12:37:30;12.10;43.60
30063;DHT22;16889;67.864;24.990;2023-05-07T12:42:19;11.70;47.00
30063;DHT22;16889;67.864;24.990;2023-05-07T12:47:09;11.90;45.90
30063;DHT22;16889;67.864;24.990;2023-05-07T12:51:55;12.50;44.50
30063;DHT22;16889;67.864;24.990;2023-05-07T12:56:41;12.70;46.00
30063;DHT22;16889;67.864;24.990;2023-05-07T13:01:31;12.80;44.40
30063;DHT22;16889;67.864;24.990;2023-05-07T13:06:19;13.10;45.40
30063;DHT22;16889;67.864;24.990;2023-05-07T13:11:07;13.40;44.70
30063;DHT22;16889;67.864;24.990;2023-05-07T13:15:53;13.50;44.50
30063;DHT22;16889;67.864;24.990;2023-05-07T13:20:39;13.40;44.00
30063;DHT22;16889;67.864;24.990;2023-05-07T13:25:26;13.10;44.20
30063;DHT22;16889;67.864;24.990;2023-05-07T13:30:12;13.20;44.60
30063;DHT22;16889;67.864;24.990;2023-05-07T13:34:58;12.90;45.10
30063;DHT22;16889;67.864;24.990;2023-05-07T13:39:44;13.00;44.20
30063;DHT22;16889;67.864;24.990;2023-05-07T13:44:31;12.70;46.80
30063;DHT22;16889;67.864;24.990;2023-05-07T13:49:17;12.80;45.30
30063;DHT22;16889;67.864;24.990;2023-05-07T13:54:03;12.80;46.60
30063;DHT22;16889;67.864;24.990;2023-05-07T13:58:49;12.70;47.10
30063;DHT22;16889;67.864;24.990;2023-05-07T14:03:35;12.70;47.50
30063;DHT22;16889;67.864;24.990;2023-05-07T14:08:23;12.90;47.40
30063;DHT22;16889;67.864;24.990;2023-05-07T14:13:09;12.90;48.30
30063;DHT22;16889;67.864;24.990;2023-05-07T14:17:55;13.00;47.10
30063;DHT22;16889;67.864;24.990;2023-05-07T14:22:43;13.00;46.20
30063;DHT22;16889;67.864;24.990;2023-05-07T14:27:29;12.80;46.70
30063;DHT22;16889;67.864;24.990;2023-05-07T14:32:15;13.00;48.20
30063;DHT22;16889;67.864;24.990;2023-05-07T14:37:01;12.90;48.00
30063;DHT22;16889;67.864;24.990;2023-05-07T14:41:47;12.70;48.90
30063;DHT22;16889;67.864;24.990;2023-05-07T14:46:33;12.80;50.80
30063;DHT22;16889;67.864;24.990;2023-05-07T14:51:19;13.20;50.20
30063;DHT22;16889;67.864;24.990;2023-05-07T14:56:06;12.90;47.70
30063;DHT22;16889;67.864;24.990;2023-05-07T15:00:52;12.40;49.30
30063;DHT22;16889;67.864;24.990;2023-05-07T15:05:38;12.10;50.10
30063;DHT22;16889;67.864;24.990;2023-05-07T15:10:25;11.70;51.90
30063;DHT22;16889;67.864;24.990;2023-05-07T15:15:11;11.70;51.50
30063;DHT22;16889;67.864;24.990;2023-05-07T15:19:56;11.50;51.40
30063;DHT22;16889;67.864;24.990;2023-05-07T15:24:42;11.30;52.10
30063;DHT22;16889;67.864;24.990;2023-05-07T15:29:29;11.10;53.90
30063;DHT22;16889;67.864;24.990;2023-05-07T15:34:15;10.90;53.30
30063;DHT22;16889;67.864;24.990;2023-05-07T15:39:03;10.90;53.40
30063;DHT22;16889;67.864;24.990;2023-05-07T15:43:51;10.80;53.00
30063;DHT22;16889;67.864;24.990;2023-05-07T15:48:37;10.60;54.10
30063;DHT22;16889;67.864;24.990;2023-05-07T15:53:23;10.50;55.20
30063;DHT22;16889;67.864;24.990;2023-05-07T15:58:10;10.50;54.50
30063;DHT22;16889;67.864;24.990;2023-05-07T16:02:56;10.50;54.90
30063;DHT22;16889;67.864;24.990;2023-05-07T16:07:42;10.40;54.90
30063;DHT22;16889;67.864;24.990;2023-05-07T16:12:29;10.10;55.30
30063;DHT22;16889;67.864;24.990;2023-05-07T16:17:15;9.90;55.40
30063;DHT22;16889;67.864;24.990;2023-05-07T16:22:01;9.70;55.70
30063;DHT22;16889;67.864;24.990;2023-05-07T16:26:47;9.50;56.00
30063;DHT22;16889;67.864;24.990;2023-05-07T16:31:33;9.30;56.80
30063;DHT22;16889;67.864;24.990;2023-05-07T16:36:19;9.20;56.60
30063;DHT22;16889;67.864;24.990;2023-05-07T16:41:05;9.00;57.70
30063;DHT22;16889;67.864;24.990;2023-05-07T16:45:53;9.00;57.90
30063;DHT22;16889;67.864;24.990;2023-05-07T16:50:39;9.00;58.10
30063;DHT22;16889;67.864;24.990;2023-05-07T16:55:26;8.90;59.20
30063;DHT22;16889;67.864;24.990;2023-05-07T17:00:12;8.90;58.90
30063;DHT22;16889;67.864;24.990;2023-05-07T17:04:58;8.70;59.50
30063;DHT22;16889;67.864;24.990;2023-05-07T17:09:45;8.80;58.80
30063;DHT22;16889;67.864;24.990;2023-05-07T17:14:30;8.80;58.90
30063;DHT22;16889;67.864;24.990;2023-05-07T17:19:16;8.70;58.50
30063;DHT22;16889;67.864;24.990;2023-05-07T17:24:03;8.70;59.40
30063;DHT22;16889;67.864;24.990;2023-05-07T17:28:49;8.60;59.20
30063;DHT22;16889;67.864;24.990;2023-05-07T17:33:35;8.50;59.20
30063;DHT22;16889;67.864;24.990;2023-05-07T17:38:21;8.40;59.60
30063;DHT22;16889;67.864;24.990;2023-05-07T17:43:07;8.30;59.70
30063;DHT22;16889;67.864;24.990;2023-05-07T17:47:53;8.20;60.00
30063;DHT22;16889;67.864;24.990;2023-05-07T17:52:40;8.10;60.90
30063;DHT22;16889;67.864;24.990;2023-05-07T17:57:26;7.90;61.80
30063;DHT22;16889;67.864;24.990;2023-05-07T18:02:13;7.70;63.00
30063;DHT22;16889;67.864;24.990;2023-05-07T18:06:59;7.50;63.90
30063;DHT22;16889;67.864;24.990;2023-05-07T18:11:45;7.40;64.80
30063;DHT22;16889;67.864;24.990;2023-05-07T18:16:31;7.20;65.70
30063;DHT22;16889;67.864;24.990;2023-05-07T18:21:17;7.00;65.90
30063;DHT22;16889;67.864;24.990;2023-05-07T18:26:06;6.90;66.30
30063;DHT22;16889;67.864;24.990;2023-05-07T18:30:52;6.70;67.90
30063;DHT22;16889;67.864;24.990;2023-05-07T18:35:38;6.60;69.40
30063;DHT22;16889;67.864;24.990;2023-05-07T18:40:24;6.30;70.00
30063;DHT22;16889;67.864;24.990;2023-05-07T18:45:10;6.20;72.30
30063;DHT22;16889;67.864;24.990;2023-05-07T18:49:56;6.00;72.70
30063;DHT22;16889;67.864;24.990;2023-05-07T18:54:42;5.80;73.60
30063;DHT22;16889;67.864;24.990;2023-05-07T18:59:28;5.70;74.20
30063;DHT22;16889;67.864;24.990;2023-05-07T19:04:16;5.60;75.80
30063;DHT22;16889;67.864;24.990;2023-05-07T19:09:02;5.50;78.00
30063;DHT22;16889;67.864;24.990;2023-05-07T19:13:49;5.30;79.10
30063;DHT22;16889;67.864;24.990;2023-05-07T19:18:35;5.20;78.70
30063;DHT22;16889;67.864;24.990;2023-05-07T19:23:21;5.10;80.10
30063;DHT22;16889;67.864;24.990;2023-05-07T19:28:07;4.90;82.20
30063;DHT22;16889;67.864;24.990;2023-05-07T19:32:54;4.80;82.70
30063;DHT22;16889;67.864;24.990;2023-05-07T19:37:40;4.70;83.90
30063;DHT22;16889;67.864;24.990;2023-05-07T19:42:26;4.60;85.30
30063;DHT22;16889;67.864;24.990;2023-05-07T19:47:12;4.30;87.40
30063;DHT22;16889;67.864;24.990;2023-05-07T19:51:58;4.20;88.50
30063;DHT22;16889;67.864;24.990;2023-05-07T19:56:44;4.10;90.00
30063;DHT22;16889;67.864;24.990;2023-05-07T20:01:30;4.00;90.20
30063;DHT22;16889;67.864;24.990;2023-05-07T20:06:16;3.90;89.90
30063;DHT22;16889;67.864;24.990;2023-05-07T20:11:03;3.60;91.50
30063;DHT22;16889;67.864;24.990;2023-05-07T20:15:49;3.70;91.20
30063;DHT22;16889;67.864;24.990;2023-05-07T20:20:35;3.60;91.50
30063;DHT22;16889;67.864;24.990;2023-05-07T20:25:21;3.60;92.20
30063;DHT22;16889;67.864;24.990;2023-05-07T20:30:09;3.60;91.30
30063;DHT22;16889;67.864;24.990;2023-05-07T20:34:55;3.60;91.10
30063;DHT22;16889;67.864;24.990;2023-05-07T20:39:41;3.70;91.20
30063;DHT22;16889;67.864;24.990;2023-05-07T20:44:27;3.60;91.00
30063;DHT22;16889;67.864;24.990;2023-05-07T20:49:15;3.60;90.10
30063;DHT22;16889;67.864;24.990;2023-05-07T20:54:01;3.60;89.50
30063;DHT22;16889;67.864;24.990;2023-05-07T20:58:47;3.50;91.60
30063;DHT22;16889;67.864;24.990;2023-05-07T21:03:33;3.20;93.20
30063;DHT22;16889;67.864;24.990;2023-05-07T21:08:19;2.80;94.50
30063;DHT22;16889;67.864;24.990;2023-05-07T21:13:05;2.70;94.30
30063;DHT22;16889;67.864;24.990;2023-05-07T21:17:51;2.70;95.50
30063;DHT22;16889;67.864;24.990;2023-05-07T21:22:37;2.60;96.40
30063;DHT22;16889;67.864;24.990;2023-05-07T21:27:23;2.40;97.10
30063;DHT22;16889;67.864;24.990;2023-05-07T21:32:09;2.30;98.00
30063;DHT22;16889;67.864;24.990;2023-05-07T21:36:55;2.30;96.60
30063;DHT22;16889;67.864;24.990;2023-05-07T21:41:41;2.40;95.90
30063;DHT22;16889;67.864;24.990;2023-05-07T21:46:27;2.40;97.70
30063;DHT22;16889;67.864;24.990;2023-05-07T21:51:13;2.40;99.90
30063;DHT22;16889;67.864;24.990;2023-05-07T21:55:59;2.40;99.90
30063;DHT22;16889;67.864;24.990;2023-05-07T22:00:46;2.60;99.30
30063;DHT22;16889;67.864;24.990;2023-05-07T22:05:32;2.70;99.90
30063;DHT22;16889;67.864;24.990;2023-05-07T22:10:18;2.70;99.00
30063;DHT22;16889;67.864;24.990;2023-05-07T22:15:07;2.60;97.70
30063;DHT22;16889;67.864;24.990;2023-05-07T22:19:53;2.60;97.50
30063;DHT22;16889;67.864;24.990;2023-05-07T22:24:39;2.60;97.30
30063;DHT22;16889;67.864;24.990;2023-05-07T22:29:25;2.50;96.00
30063;DHT22;16889;67.864;24.990;2023-05-07T22:34:11;2.50;95.20
30063;DHT22;16889;67.864;24.990;2023-05-07T22:38:57;2.60;96.20
30063;DHT22;16889;67.864;24.990;2023-05-07T22:43:43;2.50;97.60
30063;DHT22;16889;67.864;24.990;2023-05-07T22:48:29;2.40;95.60
30063;DHT22;16889;67.864;24.990;2023-05-07T22:53:16;2.40;97.10
30063;DHT22;16889;67.864;24.990;2023-05-07T22:58:02;2.40;98.10
30063;DHT22;16889;67.864;24.990;2023-05-07T23:02:49;2.20;99.20
30063;DHT22;16889;67.864;24.990;2023-05-07T23:07:35;2.20;99.90
30063;DHT22;16889;67.864;24.990;2023-05-07T23:12:21;2.10;99.90
30063;DHT22;16889;67.864;24.990;2023-05-07T23:17:07;2.10;99.90
30063;DHT22;16889;67.864;24.990;2023-05-07T23:21:53;2.00;99.90
30063;DHT22;16889;67.864;24.990;2023-05-07T23:26:39;1.90;99.90
30063;DHT22;16889;67.864;24.990;2023-05-07T23:31:25;1.70;99.60
30063;DHT22;16889;67.864;24.990;2023-05-07T23:36:11;1.80;99.70
30063;DHT22;16889;67.864;24.990;2023-05-07T23:40:57;1.90;99.90
30063;DHT22;16889;67.864;24.990;2023-05-07T23:45:43;1.90;99.90
30063;DHT22;16889;67.864;24.990;2023-05-07T23:50:29;1.80;99.90
30063;DHT22;16889;67.864;24.990;2023-05-07T23:55:15;1.70;99.90
